createdAt,value
2022-11-18T00:00:21.599Z,88.06
2022-11-18T00:02:53.187Z,87.82
2022-11-18T00:05:24.762Z,87.89
2022-11-18T00:07:56.355Z,88.06
2022-11-18T00:10:28.008Z,87.80
2022-11-18T00:13:18.110Z,87.79
2022-11-18T00:15:49.775Z,88.10
2022-11-18T00:18:21.448Z,87.65
2022-11-18T00:20:53.080Z,87.39
2022-11-18T00:23:24.670Z,87.81
2022-11-18T00:26:01.310Z,87.84
2022-11-18T00:28:33.921Z,88.16
2022-11-18T00:31:14.006Z,88.05
2022-11-18T00:33:46.809Z,88.20
2022-11-18T00:36:20.538Z,88.18
2022-11-18T00:38:52.274Z,88.29
2022-11-18T00:41:24.540Z,88.09
2022-11-18T00:43:56.254Z,88.01
2022-11-18T00:46:28.222Z,87.70
2022-11-18T00:49:02.831Z,88.20
2022-11-18T00:51:34.817Z,88.30
2022-11-18T00:54:06.748Z,88.34
2022-11-18T00:56:38.674Z,88.70
2022-11-18T00:59:10.346Z,88.05
2022-11-18T01:01:42.080Z,88.04
2022-11-18T01:04:13.902Z,88.34
2022-11-18T01:06:45.534Z,88.20
2022-11-18T01:09:17.367Z,89.10
2022-11-18T01:12:10.793Z,89.02
2022-11-18T01:14:42.510Z,88.98
2022-11-18T01:17:14.399Z,88.95
2022-11-18T01:19:46.131Z,88.32
2022-11-18T01:22:17.787Z,88.11
2022-11-18T01:24:49.360Z,88.21
2022-11-18T01:27:21.039Z,88.60
2022-11-18T01:29:56.643Z,88.65
2022-11-18T01:32:29.083Z,89.14
2022-11-18T01:35:00.875Z,88.62
2022-11-18T01:37:32.515Z,88.83
2022-11-18T01:40:08.782Z,87.99
2022-11-18T01:42:40.397Z,88.54
2022-11-18T01:45:11.962Z,88.78
2022-11-18T01:47:51.932Z,88.51
2022-11-18T01:50:24.708Z,88.53
2022-11-18T01:53:05.665Z,88.31
2022-11-18T01:55:46.297Z,88.60
2022-11-18T01:58:27.554Z,88.52
2022-11-18T02:01:04.455Z,88.40
2022-11-18T02:03:37.030Z,88.31
2022-11-18T02:06:11.898Z,88.39
2022-11-18T02:08:44.093Z,88.69
2022-11-18T02:11:34.908Z,88.85
2022-11-18T02:14:09.813Z,88.77
2022-11-18T02:16:53.510Z,88.57
2022-11-18T02:19:30.788Z,88.45
2022-11-18T02:22:14.538Z,88.58
2022-11-18T02:25:19.354Z,88.65
2022-11-18T02:28:03.446Z,88.90
2022-11-18T02:30:56.376Z,89.36
2022-11-18T02:33:31.010Z,89.25
2022-11-18T02:36:12.419Z,88.79
2022-11-18T02:38:50.278Z,89.06
2022-11-18T02:41:28.079Z,89.30
2022-11-18T02:44:05.962Z,89.00
2022-11-18T02:46:40.233Z,88.85
2022-11-18T02:49:27.682Z,88.79
2022-11-18T02:52:02.118Z,88.63
2022-11-18T02:54:37.413Z,89.10
2022-11-18T02:57:09.425Z,88.90
2022-11-18T02:59:44.040Z,88.98
2022-11-18T03:02:18.007Z,88.99
2022-11-18T03:04:54.061Z,88.96
2022-11-18T03:07:30.084Z,88.69
2022-11-18T03:10:02.967Z,88.74
2022-11-18T03:12:49.058Z,89.27
2022-11-18T03:15:35.027Z,88.98
2022-11-18T03:18:33.644Z,88.93
2022-11-18T03:21:24.801Z,88.69
2022-11-18T03:24:25.573Z,88.86
2022-11-18T03:27:23.994Z,88.77
2022-11-18T03:30:03.865Z,88.30
2022-11-18T03:32:40.387Z,88.23
2022-11-18T03:35:21.159Z,88.33
2022-11-18T03:37:58.368Z,88.30
2022-11-18T03:40:32.625Z,87.99
2022-11-18T03:43:13.850Z,88.03
2022-11-18T03:45:49.424Z,87.75
2022-11-18T03:48:29.536Z,87.81
2022-11-18T03:51:07.171Z,87.78
2022-11-18T03:53:43.290Z,87.89
2022-11-18T03:56:19.557Z,88.44
2022-11-18T03:59:02.806Z,88.37
2022-11-18T04:01:46.095Z,88.55
2022-11-18T04:04:18.353Z,88.06
2022-11-18T04:07:18.590Z,88.44
2022-11-18T04:10:18.010Z,88.62
2022-11-18T04:13:06.846Z,88.25
2022-11-18T04:15:41.531Z,87.84
2022-11-18T04:18:13.318Z,87.47
2022-11-18T04:20:44.938Z,86.77
2022-11-18T04:23:16.539Z,87.11
2022-11-18T04:25:49.248Z,87.43
2022-11-18T04:28:22.846Z,87.77
2022-11-18T04:30:54.461Z,87.95
2022-11-18T04:33:26.180Z,88.33
2022-11-18T04:35:57.791Z,88.95
2022-11-18T04:38:29.416Z,89.25
2022-11-18T04:41:01.047Z,89.10
2022-11-18T04:43:32.760Z,88.57
2022-11-18T04:46:04.530Z,88.29
2022-11-18T04:48:36.193Z,88.30
2022-11-18T04:51:10.613Z,88.67
2022-11-18T04:53:42.293Z,88.72
2022-11-18T04:56:13.873Z,88.54
2022-11-18T04:58:45.500Z,88.18
2022-11-18T05:01:17.213Z,87.98
2022-11-18T05:03:52.018Z,88.02
2022-11-18T05:06:23.664Z,88.00
2022-11-18T05:08:56.899Z,87.87
2022-11-18T05:11:47.209Z,87.70
2022-11-18T05:14:19.196Z,87.00
2022-11-18T05:16:55.680Z,86.85
2022-11-18T05:19:27.357Z,87.20
2022-11-18T05:21:59.522Z,87.33
2022-11-18T05:24:31.129Z,87.08
2022-11-18T05:27:03.128Z,86.92
2022-11-18T05:29:34.786Z,86.69
2022-11-18T05:32:06.432Z,86.74
2022-11-18T05:34:39.969Z,86.87
2022-11-18T05:37:11.772Z,86.88
2022-11-18T05:39:43.409Z,86.85
2022-11-18T05:42:33.554Z,87.53
2022-11-18T05:45:05.871Z,87.68
2022-11-18T05:47:57.440Z,88.02
2022-11-18T05:50:29.110Z,88.19
2022-11-18T05:53:02.151Z,87.99
2022-11-18T05:55:42.271Z,87.75
2022-11-18T05:58:14.048Z,87.00
2022-11-18T06:00:48.183Z,87.19
2022-11-18T06:03:30.284Z,87.36
2022-11-18T06:06:05.445Z,87.47
2022-11-18T06:08:46.157Z,87.97
2022-11-18T06:11:19.584Z,87.97
2022-11-18T06:14:16.206Z,88.06
2022-11-18T06:16:53.538Z,88.27
2022-11-18T06:19:26.250Z,88.41
2022-11-18T06:21:59.707Z,87.92
2022-11-18T06:24:31.714Z,87.66
2022-11-18T06:27:03.695Z,87.49
2022-11-18T06:29:35.414Z,87.15
2022-11-18T06:32:07.132Z,86.42
2022-11-18T06:34:41.703Z,86.81
2022-11-18T06:37:20.970Z,87.15
2022-11-18T06:39:52.657Z,87.07
2022-11-18T06:42:42.589Z,87.45
2022-11-18T06:45:14.453Z,87.41
2022-11-18T06:47:46.141Z,87.75
2022-11-18T06:50:17.832Z,87.53
2022-11-18T06:52:49.424Z,87.53
2022-11-18T06:55:21.030Z,87.62
2022-11-18T06:57:52.683Z,87.68
2022-11-18T07:00:24.294Z,87.96
2022-11-18T07:02:55.935Z,87.84
2022-11-18T07:05:27.702Z,87.75
2022-11-18T07:07:59.575Z,88.05
2022-11-18T07:10:31.264Z,87.89
2022-11-18T07:13:02.953Z,87.83
2022-11-18T07:15:37.682Z,87.53
2022-11-18T07:18:09.315Z,87.10
2022-11-18T07:20:41.295Z,86.47
2022-11-18T07:23:15.451Z,87.07
2022-11-18T07:25:47.127Z,85.96
2022-11-18T07:28:18.777Z,86.35
2022-11-18T07:30:51.085Z,86.35
2022-11-18T07:33:22.781Z,87.04
2022-11-18T07:35:54.391Z,87.00
2022-11-18T07:38:26.217Z,86.62
2022-11-18T07:41:09.118Z,86.60
2022-11-18T07:43:41.533Z,86.88
2022-11-18T07:46:17.250Z,86.76
2022-11-18T07:48:50.989Z,86.86
2022-11-18T07:51:27.082Z,86.89
2022-11-18T07:53:58.696Z,87.07
2022-11-18T07:56:30.526Z,87.03
2022-11-18T07:59:02.899Z,87.33
2022-11-18T08:01:35.449Z,87.50
2022-11-18T08:04:09.585Z,87.05
2022-11-18T08:06:41.254Z,86.93
2022-11-18T08:09:12.983Z,87.33
2022-11-18T08:11:44.642Z,87.51
2022-11-18T08:14:16.278Z,87.31
2022-11-18T08:16:48.000Z,87.68
2022-11-18T08:19:20.011Z,87.34
2022-11-18T08:21:51.946Z,87.55
2022-11-18T08:24:23.731Z,87.19
2022-11-18T08:26:55.386Z,87.09
2022-11-18T08:29:28.214Z,86.80
2022-11-18T08:32:00.106Z,86.76
2022-11-18T08:34:31.947Z,86.20
2022-11-18T08:37:03.583Z,86.08
2022-11-18T08:39:35.748Z,85.57
2022-11-18T08:42:07.725Z,84.91
2022-11-18T08:44:39.662Z,84.37
2022-11-18T08:47:11.660Z,84.35
2022-11-18T08:49:43.786Z,83.58
2022-11-18T08:52:16.809Z,83.93
2022-11-18T08:54:48.417Z,84.38
2022-11-18T08:57:20.022Z,84.06
2022-11-18T08:59:52.130Z,83.91
2022-11-18T09:02:24.520Z,84.46
2022-11-18T09:04:56.203Z,83.98
2022-11-18T09:07:27.890Z,84.29
2022-11-18T09:09:59.691Z,84.93
2022-11-18T09:12:31.385Z,85.02
2022-11-18T09:15:13.590Z,85.45
2022-11-18T09:17:46.267Z,86.05
2022-11-18T09:20:18.072Z,86.77
2022-11-18T09:22:49.838Z,85.54
2022-11-18T09:25:22.007Z,85.82
2022-11-18T09:27:55.470Z,87.18
2022-11-18T09:30:27.672Z,86.46
2022-11-18T09:32:59.336Z,86.05
2022-11-18T09:35:32.234Z,86.32
2022-11-18T09:38:03.851Z,86.23
2022-11-18T09:40:58.629Z,86.69
2022-11-18T09:43:57.335Z,86.29
2022-11-18T09:47:07.544Z,85.62
2022-11-18T09:49:41.147Z,85.06
2022-11-18T09:52:12.675Z,85.18
2022-11-18T09:54:44.774Z,86.29
2022-11-18T09:57:36.766Z,86.00
2022-11-18T10:00:26.422Z,85.42
2022-11-18T10:03:04.956Z,86.00
2022-11-18T10:06:09.692Z,86.39
2022-11-18T10:08:55.744Z,86.67
2022-11-18T10:11:40.259Z,86.69
2022-11-18T10:14:23.120Z,87.16
2022-11-18T10:17:22.816Z,87.22
2022-11-18T10:20:07.009Z,87.29
2022-11-18T10:22:54.279Z,87.55
2022-11-18T10:25:26.207Z,87.44
2022-11-18T10:28:14.838Z,87.65
2022-11-18T10:30:46.620Z,87.42
2022-11-18T10:33:25.639Z,87.50
2022-11-18T10:36:26.896Z,87.81
2022-11-18T10:39:15.622Z,87.03
2022-11-18T10:41:52.150Z,86.81
2022-11-18T10:44:33.779Z,87.28
2022-11-18T10:47:43.699Z,86.87
2022-11-18T10:50:29.069Z,86.90
2022-11-18T10:53:02.069Z,87.14
2022-11-18T10:55:33.853Z,87.38
2022-11-18T10:58:13.551Z,88.35
2022-11-18T11:00:51.450Z,88.35
2022-11-18T11:03:44.213Z,87.61
2022-11-18T11:06:31.514Z,87.64
2022-11-18T11:09:24.963Z,87.47
2022-11-18T11:12:12.617Z,88.00
2022-11-18T11:14:53.493Z,87.71
2022-11-18T11:18:09.257Z,87.69
2022-11-18T11:20:41.317Z,88.00
2022-11-18T11:23:19.116Z,88.35
2022-11-18T11:29:07.477Z,87.68
2022-11-18T11:31:55.618Z,87.56
2022-11-18T11:35:07.154Z,87.64
2022-11-18T11:37:55.019Z,87.55
2022-11-18T11:41:08.448Z,87.97
2022-11-18T11:44:08.840Z,88.42
2022-11-18T11:47:38.412Z,88.24
2022-11-18T11:50:17.401Z,87.83
2022-11-18T11:52:49.063Z,86.96
2022-11-18T11:55:21.638Z,87.20
2022-11-18T11:58:13.612Z,87.30
2022-11-18T12:01:03.672Z,86.83
2022-11-18T12:03:52.061Z,87.00
2022-11-18T12:06:24.020Z,87.96
2022-11-18T12:09:07.286Z,87.56
2022-11-18T12:11:45.218Z,87.33
2022-11-18T12:14:39.871Z,87.02
2022-11-18T12:17:28.362Z,87.64
2022-11-18T12:19:59.960Z,87.45
2022-11-18T12:23:09.619Z,87.77
2022-11-18T12:26:02.044Z,86.94
2022-11-18T12:28:43.341Z,87.13
2022-11-18T12:31:18.222Z,86.28
2022-11-18T12:33:53.933Z,86.53
2022-11-18T12:36:35.745Z,86.20
2022-11-18T12:39:36.247Z,85.64
2022-11-18T12:43:01.758Z,85.48
2022-11-18T12:45:43.339Z,85.16
2022-11-18T12:48:27.408Z,84.80
2022-11-18T12:51:22.395Z,85.21
2022-11-18T12:53:54.455Z,84.74
2022-11-18T12:56:35.454Z,84.34
2022-11-18T12:59:13.018Z,84.77
2022-11-18T13:01:44.706Z,84.79
2022-11-18T13:04:22.306Z,84.69
2022-11-18T13:06:56.296Z,84.50
2022-11-18T13:09:32.949Z,84.76
2022-11-18T13:12:12.785Z,85.30
2022-11-18T13:15:04.226Z,85.43
2022-11-18T13:17:58.569Z,85.47
2022-11-18T13:20:37.460Z,85.49
2022-11-18T13:23:30.658Z,85.75
2022-11-18T13:26:16.047Z,86.27
2022-11-18T13:29:16.264Z,86.64
2022-11-18T13:32:15.508Z,86.22
2022-11-18T13:34:50.357Z,86.01
2022-11-18T13:37:26.501Z,85.75
2022-11-18T13:39:58.358Z,86.20
2022-11-18T13:42:31.766Z,86.16
2022-11-18T13:45:04.183Z,85.68
2022-11-18T13:47:51.588Z,85.93
2022-11-18T13:50:40.448Z,86.03
2022-11-18T13:53:19.067Z,86.40
2022-11-18T13:55:56.311Z,86.65
2022-11-18T14:01:36.651Z,86.22
2022-11-18T14:04:21.215Z,86.26
2022-11-18T14:06:53.394Z,85.92
2022-11-18T14:09:30.559Z,85.56
2022-11-18T14:12:28.853Z,85.57
2022-11-18T14:15:34.683Z,85.66
2022-11-18T14:18:23.062Z,85.32
2022-11-18T14:20:55.033Z,85.51
2022-11-18T14:23:36.979Z,86.02
2022-11-18T14:26:09.896Z,85.99
2022-11-18T14:28:55.007Z,85.23
2022-11-18T14:31:29.016Z,83.97
2022-11-18T14:34:05.246Z,84.15
2022-11-18T14:36:36.874Z,83.76
2022-11-18T14:39:29.505Z,83.51
2022-11-18T14:42:01.908Z,83.20
2022-11-18T14:44:34.572Z,83.50
2022-11-18T14:47:24.616Z,83.17
2022-11-18T14:49:56.226Z,83.93
2022-11-18T14:52:30.208Z,84.24
2022-11-18T14:55:01.879Z,84.19
2022-11-18T14:57:33.598Z,83.33
2022-11-18T15:00:05.793Z,83.79
2022-11-18T15:02:37.441Z,83.54
2022-11-18T15:05:09.371Z,84.09
2022-11-18T15:07:41.042Z,83.58
2022-11-18T15:10:17.803Z,83.80
2022-11-18T15:12:49.389Z,83.94
2022-11-18T15:15:21.053Z,84.40
2022-11-18T15:17:54.011Z,84.06
2022-11-18T15:20:28.969Z,84.14
2022-11-18T15:23:00.695Z,83.98
2022-11-18T15:25:32.478Z,84.73
2022-11-18T15:28:04.298Z,84.78
2022-11-18T15:30:36.401Z,84.56
2022-11-18T15:33:10.110Z,84.99
2022-11-18T15:35:41.728Z,84.71
2022-11-18T15:38:13.395Z,84.47
2022-11-18T15:40:45.105Z,84.96
2022-11-18T15:43:17.888Z,84.71
2022-11-18T15:45:57.011Z,84.20
2022-11-18T15:48:28.716Z,84.36
2022-11-18T15:51:00.393Z,84.31
2022-11-18T15:53:32.099Z,84.26
2022-11-18T15:56:19.081Z,84.63
2022-11-18T15:58:57.119Z,85.21
2022-11-18T16:01:32.210Z,85.39
2022-11-18T16:04:05.819Z,85.34
2022-11-18T16:06:38.042Z,85.46
2022-11-18T16:09:10.693Z,85.03
2022-11-18T16:12:00.980Z,85.73
2022-11-18T16:14:32.804Z,85.98
2022-11-18T16:17:04.380Z,85.98
2022-11-18T16:19:36.024Z,85.35
2022-11-18T16:22:07.581Z,84.84
2022-11-18T16:24:42.910Z,85.33
2022-11-18T16:27:20.659Z,85.51
2022-11-18T16:29:52.569Z,85.22
2022-11-18T16:32:26.854Z,85.57
2022-11-18T16:35:01.432Z,85.11
2022-11-18T16:37:34.512Z,85.34
2022-11-18T16:40:06.686Z,86.00
2022-11-18T16:42:38.317Z,85.73
2022-11-18T16:45:10.615Z,85.20
2022-11-18T16:47:43.192Z,85.20
2022-11-18T16:50:14.939Z,84.69
2022-11-18T16:52:46.543Z,85.12
2022-11-18T16:55:18.077Z,85.07
2022-11-18T16:57:49.663Z,85.39
2022-11-18T17:00:37.840Z,84.00
2022-11-18T17:03:12.898Z,83.67
2022-11-18T17:05:44.482Z,83.20
2022-11-18T17:08:16.118Z,83.51
2022-11-18T17:10:47.788Z,82.30
2022-11-18T17:13:19.626Z,83.02
2022-11-18T17:15:51.208Z,82.71
2022-11-18T17:18:22.811Z,82.69
2022-11-18T17:20:54.415Z,81.18
2022-11-18T17:23:28.496Z,81.98
2022-11-18T17:26:01.185Z,82.04
2022-11-18T17:28:35.118Z,82.95
2022-11-18T17:31:08.764Z,83.17
2022-11-18T17:33:41.172Z,83.12
2022-11-18T17:36:18.940Z,83.04
2022-11-18T17:38:53.011Z,83.15
2022-11-18T17:41:45.171Z,82.97
2022-11-18T17:44:17.878Z,83.16
2022-11-18T17:46:50.084Z,83.04
2022-11-18T17:49:22.491Z,82.21
2022-11-18T17:51:54.633Z,82.33
2022-11-18T17:54:36.143Z,82.55
2022-11-18T17:57:07.770Z,82.31
2022-11-18T17:59:39.409Z,82.73
2022-11-18T18:02:14.288Z,82.57
2022-11-18T18:04:46.090Z,82.22
2022-11-18T18:07:19.771Z,81.45
2022-11-18T18:09:51.465Z,81.70
2022-11-18T18:12:41.799Z,81.92
2022-11-18T18:15:13.437Z,82.55
2022-11-18T18:17:51.369Z,82.67
2022-11-18T18:20:23.298Z,81.94
2022-11-18T18:22:54.912Z,82.18
2022-11-18T18:25:26.526Z,81.96
2022-11-18T18:27:58.106Z,81.80
2022-11-18T18:30:29.763Z,82.04
2022-11-18T18:33:04.269Z,82.04
2022-11-18T18:35:41.269Z,82.33
2022-11-18T18:38:12.945Z,81.36
2022-11-18T18:40:44.571Z,82.16
2022-11-18T18:43:16.140Z,82.25
2022-11-18T18:46:06.292Z,82.21
2022-11-18T18:48:37.859Z,82.69
2022-11-18T18:51:09.774Z,82.24
2022-11-18T18:53:41.622Z,80.35
2022-11-18T18:56:13.385Z,80.47
2022-11-18T18:58:45.495Z,80.67
2022-11-18T19:01:18.980Z,81.13
2022-11-18T19:03:59.261Z,81.35
2022-11-18T19:09:29.768Z,81.13
2022-11-18T19:12:20.391Z,80.74
2022-11-18T19:14:52.071Z,80.92
2022-11-18T19:17:24.010Z,80.79
2022-11-18T19:20:33.605Z,80.16
2022-11-18T19:23:10.363Z,79.99
2022-11-18T19:25:44.123Z,79.93
2022-11-18T19:28:15.819Z,80.36
2022-11-18T19:30:47.725Z,80.55
2022-11-18T19:33:19.504Z,80.42
2022-11-18T19:35:51.115Z,80.24
2022-11-18T19:38:28.652Z,80.54
2022-11-18T19:41:08.996Z,80.44
2022-11-18T19:43:41.900Z,80.62
2022-11-18T19:46:13.584Z,80.55
2022-11-18T19:48:48.449Z,80.91
2022-11-18T19:51:19.962Z,81.00
2022-11-18T19:53:54.608Z,80.59
2022-11-18T19:56:28.617Z,80.51
2022-11-18T19:59:00.269Z,80.80
2022-11-18T20:01:32.113Z,80.77
2022-11-18T20:04:07.073Z,81.52
2022-11-18T20:06:39.947Z,81.09
2022-11-18T20:09:11.838Z,80.96
2022-11-18T20:11:44.512Z,80.91
2022-11-18T20:14:16.585Z,81.17
2022-11-18T20:16:48.269Z,80.98
2022-11-18T20:19:20.177Z,81.01
2022-11-18T20:21:52.662Z,81.33
2022-11-18T20:24:24.611Z,81.39
2022-11-18T20:26:56.183Z,81.50
2022-11-18T20:29:27.901Z,82.26
2022-11-18T20:31:59.562Z,82.41
2022-11-18T20:34:31.194Z,82.93
2022-11-18T20:37:02.937Z,81.98
2022-11-18T20:39:34.554Z,82.34
2022-11-18T20:42:24.785Z,82.17
2022-11-18T20:44:56.473Z,82.35
2022-11-18T20:47:28.059Z,81.75
2022-11-18T20:49:59.758Z,81.82
2022-11-18T20:52:33.795Z,81.38
2022-11-18T20:55:06.132Z,81.57
2022-11-18T20:57:37.862Z,81.60
2022-11-18T21:00:10.184Z,82.20
2022-11-18T21:02:41.784Z,81.86
2022-11-18T21:05:13.434Z,81.90
2022-11-18T21:07:45.099Z,82.03
2022-11-18T21:10:17.600Z,82.19
2022-11-18T21:13:07.936Z,81.80
2022-11-18T21:15:39.568Z,81.43
2022-11-18T21:18:11.116Z,81.11
2022-11-18T21:21:01.143Z,81.33
2022-11-18T21:23:35.472Z,81.88
2022-11-18T21:26:12.892Z,81.56
2022-11-18T21:28:45.115Z,81.64
2022-11-18T21:31:21.956Z,81.34
2022-11-18T21:33:55.889Z,80.81
2022-11-18T21:36:30.529Z,81.02
2022-11-18T21:39:04.992Z,80.43
2022-11-18T21:41:37.013Z,79.99
2022-11-18T21:44:10.737Z,80.29
2022-11-18T21:46:42.411Z,79.65
2022-11-18T21:49:17.456Z,79.83
2022-11-18T21:51:49.500Z,79.08
2022-11-18T21:54:21.260Z,79.07
2022-11-18T21:56:53.849Z,79.14
2022-11-18T21:59:25.486Z,78.83
2022-11-18T22:01:57.120Z,79.08
2022-11-18T22:04:47.539Z,79.31
2022-11-18T22:07:23.978Z,78.59
2022-11-18T22:09:55.657Z,78.29
2022-11-18T22:12:27.325Z,78.98
2022-11-18T22:14:58.928Z,79.37
2022-11-18T22:17:30.620Z,79.72
2022-11-18T22:20:02.781Z,79.91
2022-11-18T22:22:34.462Z,79.56
2022-11-18T22:25:06.517Z,79.41
2022-11-18T22:27:38.139Z,79.48
2022-11-18T22:30:10.199Z,79.23
2022-11-18T22:32:43.476Z,79.11
2022-11-18T22:35:15.175Z,78.92
2022-11-18T22:37:46.838Z,78.93
2022-11-18T22:40:18.533Z,78.26
2022-11-18T22:42:50.615Z,77.93
2022-11-18T22:45:22.407Z,76.77
2022-11-18T22:47:54.083Z,77.11
2022-11-18T22:50:28.666Z,76.85
2022-11-18T22:53:02.905Z,76.00
2022-11-18T22:55:34.503Z,75.15
2022-11-18T22:58:06.231Z,74.58
2022-11-18T23:00:37.914Z,74.22
2022-11-18T23:03:09.512Z,74.40
2022-11-18T23:05:42.595Z,73.68
2022-11-18T23:08:17.290Z,74.46
2022-11-18T23:10:49.136Z,74.19
2022-11-18T23:13:39.500Z,73.94
2022-11-18T23:16:11.075Z,72.90
2022-11-18T23:18:47.285Z,73.88
2022-11-18T23:21:18.919Z,73.55
2022-11-18T23:23:52.623Z,73.60
2022-11-18T23:26:24.757Z,73.97
2022-11-18T23:28:56.452Z,73.58
2022-11-18T23:31:28.413Z,73.08
2022-11-18T23:34:00.286Z,72.33
2022-11-18T23:36:31.892Z,72.75
2022-11-18T23:39:04.734Z,72.12
2022-11-18T23:41:36.817Z,72.29
2022-11-18T23:44:08.495Z,71.83
2022-11-18T23:46:40.042Z,72.39
2022-11-18T23:49:12.605Z,71.98
2022-11-18T23:51:44.204Z,71.83
2022-11-18T23:54:15.764Z,72.52
2022-11-18T23:56:47.431Z,71.53
2022-11-18T23:59:19.440Z,71.49
